Time;durP1;ratioP1;P1;durP2;ratioP2;P2;SDS_P1;SDS_P2;PMS_P1;PMS_P2;Temp;Humidity;BMP_temperature;BMP_pressure;BME280_temperature;BME280_humidity;BME280_pressure;Samples;Min_cycle;Max_cycle;Signal;HPM_P1;HPM_P2
2023/09/12 00:01:16;;;;;;;37.05;23.13;;;;;;;11.74;71.55;100174.78;5052874;28;20029;-54
2023/09/12 00:03:41;;;;;;;34.97;22.88;;;;;;;11.73;71.82;100178.44;5051473;28;20442;-55
2023/09/12 00:06:07;;;;;;;37.63;24.02;;;;;;;11.72;71.99;100182.97;5052172;28;20301;-58
2023/09/12 00:08:32;;;;;;;36.47;23.92;;;;;;;11.68;71.97;100175.28;5052465;28;20162;-55
2023/09/12 00:11:03;;;;;;;36.83;24.40;;;;;;;11.66;72.14;100166.50;5052273;28;20033;-55
2023/09/12 00:13:29;;;;;;;34.38;23.63;;;;;;;11.68;72.31;100189.53;5051774;28;20056;-55
2023/09/12 00:15:55;;;;;;;41.05;23.55;;;;;;;11.65;72.26;100188.94;5052618;28;20074;-55
2023/09/12 00:18:21;;;;;;;38.60;24.17;;;;;;;11.56;72.30;100190.50;5052625;28;20421;-57
2023/09/12 00:20:46;;;;;;;37.13;23.95;;;;;;;11.63;72.73;100189.91;5051925;28;20025;-54
2023/09/12 00:23:11;;;;;;;32.92;23.20;;;;;;;11.47;72.53;100162.59;5051917;28;20443;-55
2023/09/12 00:25:37;;;;;;;35.03;23.88;;;;;;;11.66;72.42;100193.31;5052466;28;20360;-55
2023/09/12 00:28:02;;;;;;;35.13;24.55;;;;;;;11.62;72.54;100195.38;5052876;28;20021;-55
2023/09/12 00:30:28;;;;;;;38.40;23.58;;;;;;;11.59;72.35;100190.25;5052054;28;20372;-56
2023/09/12 00:32:53;;;;;;;36.83;24.08;;;;;;;11.58;72.69;100194.78;5051359;28;20404;-53
2023/09/12 00:35:19;;;;;;;39.38;24.48;;;;;;;11.57;72.44;100194.91;5053095;28;20044;-52
2023/09/12 00:37:44;;;;;;;44.25;25.60;;;;;;;11.53;72.66;100199.63;5051292;28;20033;-60
2023/09/12 00:40:10;;;;;;;43.83;23.80;;;;;;;11.52;72.81;100214.03;5050508;28;20041;-50
2023/09/12 00:42:35;;;;;;;41.22;23.60;;;;;;;11.29;73.04;100164.91;5052016;28;20037;-55
2023/09/12 00:45:01;;;;;;;38.60;24.63;;;;;;;11.54;73.20;100203.19;5051702;28;20032;-54
2023/09/12 00:47:28;;;;;;;41.20;24.73;;;;;;;11.55;73.25;100216.44;5052114;28;20368;-56
2023/09/12 00:49:56;;;;;;;37.53;24.65;;;;;;;11.57;72.95;100216.34;5051784;28;20063;-54
2023/09/12 00:52:26;;;;;;;39.25;25.40;;;;;;;11.55;72.72;100213.78;5052196;28;20064;-57
2023/09/12 00:54:52;;;;;;;37.90;24.33;;;;;;;11.48;72.81;100212.56;5051803;28;20163;-59
2023/09/12 00:57:18;;;;;;;35.50;24.42;;;;;;;11.52;73.09;100222.06;5051342;28;20125;-56
2023/09/12 00:59:43;;;;;;;39.95;24.08;;;;;;;11.43;72.88;100209.38;5050334;28;20048;-54
2023/09/12 01:02:09;;;;;;;40.63;24.35;;;;;;;11.52;73.08;100216.69;5034176;28;20036;-55
2023/09/12 01:04:36;;;;;;;39.78;24.77;;;;;;;11.47;73.10;100217.09;5050740;28;20043;-56
2023/09/12 01:07:05;;;;;;;39.83;24.63;;;;;;;11.51;73.38;100219.53;5051867;28;20052;-55
2023/09/12 01:09:32;;;;;;;40.55;25.15;;;;;;;11.44;73.44;100217.28;5051523;28;20090;-51
2023/09/12 01:11:57;;;;;;;36.42;23.80;;;;;;;11.43;73.36;100228.16;5051275;28;20446;-54
2023/09/12 01:14:23;;;;;;;41.13;25.27;;;;;;;11.40;73.66;100217.69;5051874;28;20065;-57
2023/09/12 01:16:48;;;;;;;40.38;24.60;;;;;;;11.43;73.57;100220.94;5052026;28;20024;-54
2023/09/12 01:19:15;;;;;;;38.28;24.17;;;;;;;11.42;73.42;100218.41;5050464;28;20029;-54
2023/09/12 01:21:53;;;;;;;38.00;25.80;;;;;;;11.50;73.51;100226.69;5051214;28;20037;-52
2023/09/12 01:24:24;;;;;;;39.03;24.48;;;;;;;11.45;73.75;100223.53;5051978;28;20048;-53
2023/09/12 01:27:21;;;;;;;42.72;25.27;;;;;;;11.49;73.53;100227.66;5051905;28;20042;-56
2023/09/12 01:29:50;;;;;;;36.85;24.40;;;;;;;11.38;73.37;100228.50;5051192;28;20021;-55
2023/09/12 01:32:19;;;;;;;39.38;24.13;;;;;;;11.37;73.73;100236.69;5051546;28;20372;-57
2023/09/12 01:34:45;;;;;;;40.65;24.30;;;;;;;11.33;73.41;100226.22;5051370;28;20098;-54
2023/09/12 01:37:10;;;;;;;36.05;24.00;;;;;;;11.38;73.64;100222.31;5050279;28;20456;-59
2023/09/12 01:39:36;;;;;;;41.53;23.70;;;;;;;11.36;73.51;100229.63;5050721;28;20029;-55
2023/09/12 01:42:02;;;;;;;37.50;24.50;;;;;;;11.31;73.73;100233.47;5049888;28;20060;-55
2023/09/12 01:44:29;;;;;;;39.30;23.85;;;;;;;11.36;73.73;100233.13;5051014;28;20029;-57
2023/09/12 01:46:58;;;;;;;46.30;25.92;;;;;;;11.37;73.38;100242.03;5051177;28;20518;-54
2023/09/12 01:49:25;;;;;;;39.15;25.25;;;;;;;11.34;73.73;100235.09;5051466;28;20108;-49
2023/09/12 01:51:52;;;;;;;40.80;25.10;;;;;;;11.32;73.72;100235.19;5051679;28;20051;-54
2023/09/12 01:54:20;;;;;;;42.83;25.10;;;;;;;11.30;73.45;100228.25;5050748;28;20090;-56
2023/09/12 01:56:45;;;;;;;40.38;25.48;;;;;;;11.13;73.58;100224.19;5050081;28;20086;-54
2023/09/12 01:59:11;;;;;;;41.45;25.13;;;;;;;11.18;73.81;100225.53;5051397;28;20096;-56
2023/09/12 02:01:36;;;;;;;40.33;25.23;;;;;;;11.21;73.75;100232.50;5049394;28;20044;-54
2023/09/12 02:04:03;;;;;;;40.92;24.88;;;;;;;11.07;73.47;100214.81;5050387;28;20047;-56
2023/09/12 02:06:28;;;;;;;46.53;25.88;;;;;;;11.20;73.55;100236.16;5051300;28;20472;-55
2023/09/12 02:08:53;;;;;;;38.08;25.42;;;;;;;11.28;73.38;100231.03;5053778;28;20116;-54
2023/09/12 02:11:19;;;;;;;40.85;25.50;;;;;;;11.24;73.61;100237.63;5053497;28;20033;-53
2023/09/12 02:13:45;;;;;;;40.20;25.52;;;;;;;11.17;74.07;100236.38;5037007;28;20114;-56
2023/09/12 02:16:10;;;;;;;40.70;25.73;;;;;;;11.14;73.98;100240.16;5054948;28;20033;-55
2023/09/12 02:18:35;;;;;;;39.20;25.38;;;;;;;11.11;74.03;100242.22;5054409;28;20037;-56
2023/09/12 02:21:04;;;;;;;40.13;25.70;;;;;;;11.07;73.88;100241.59;5054858;28;20036;-53
2023/09/12 02:23:29;;;;;;;44.92;26.90;;;;;;;11.03;74.41;100249.00;5054404;28;20370;-55
2023/09/12 02:25:55;;;;;;;41.50;25.33;;;;;;;10.94;74.49;100247.03;5054736;28;20463;-53
2023/09/12 02:28:21;;;;;;;43.15;27.08;;;;;;;10.93;74.76;100236.41;5053873;28;20406;-55
2023/09/12 02:30:46;;;;;;;40.00;26.05;;;;;;;11.00;74.84;100254.59;5054929;28;20028;-58
2023/09/12 02:33:11;;;;;;;41.80;26.92;;;;;;;10.98;74.77;100248.50;5054333;28;20032;-56
2023/09/12 02:35:37;;;;;;;44.45;26.38;;;;;;;11.02;74.49;100257.19;5054324;28;20037;-56
2023/09/12 02:38:02;;;;;;;40.08;24.27;;;;;;;10.98;74.79;100253.03;5053870;28;20024;-56
2023/09/12 02:40:28;;;;;;;42.22;26.90;;;;;;;10.90;75.00;100248.25;5054870;28;20414;-54
2023/09/12 02:42:53;;;;;;;40.92;26.83;;;;;;;10.98;74.66;100261.06;5054696;28;20159;-55
2023/09/12 02:45:18;;;;;;;40.25;25.50;;;;;;;10.98;74.39;100258.38;5054080;28;20040;-56
2023/09/12 02:47:46;;;;;;;41.50;24.90;;;;;;;10.96;74.81;100262.97;5054133;28;20044;-56
2023/09/12 02:50:11;;;;;;;46.58;25.17;;;;;;;10.93;74.53;100260.53;5054658;28;20098;-52
2023/09/12 02:52:37;;;;;;;42.47;26.08;;;;;;;10.91;74.93;100261.50;5054014;28;20029;-53
2023/09/12 02:55:02;;;;;;;39.55;26.80;;;;;;;10.93;75.08;100260.53;5053371;28;20400;-53
2023/09/12 02:57:28;;;;;;;45.10;25.80;;;;;;;10.70;74.85;100229.16;5052553;28;20112;-59
2023/09/12 02:59:54;;;;;;;39.10;26.15;;;;;;;10.96;74.78;100260.28;5053717;28;20116;-56
2023/09/12 03:02:19;;;;;;;43.03;25.88;;;;;;;10.98;74.61;100261.06;5054139;28;20114;-58
2023/09/12 03:04:44;;;;;;;42.78;26.50;;;;;;;10.82;74.75;100237.22;5053810;28;20048;-56
2023/09/12 03:07:10;;;;;;;44.70;26.23;;;;;;;11.07;74.32;100268.38;5053474;28;20044;-56
2023/09/12 03:09:37;;;;;;;43.08;26.17;;;;;;;10.99;74.16;100255.56;5054280;28;20029;-58
2023/09/12 03:12:06;;;;;;;44.53;26.75;;;;;;;11.06;74.24;100266.69;5053906;28;20045;-53
2023/09/12 03:14:32;;;;;;;43.03;26.83;;;;;;;11.12;73.71;100270.72;5053753;28;20059;-60
2023/09/12 03:16:58;;;;;;;43.33;26.95;;;;;;;11.16;74.11;100266.84;5053592;28;20108;-55
2023/09/12 03:19:23;;;;;;;44.05;25.85;;;;;;;11.25;73.42;100270.66;5053393;28;20054;-55
2023/09/12 03:21:48;;;;;;;41.10;26.60;;;;;;;11.29;73.27;100262.22;5053953;28;20374;-56
2023/09/12 03:24:14;;;;;;;46.60;25.60;;;;;;;11.44;73.16;100259.34;5053483;28;20033;-55
2023/09/12 03:26:39;;;;;;;45.88;26.67;;;;;;;11.82;72.30;100274.28;5053057;28;20032;-56
2023/09/12 03:29:05;;;;;;;45.55;25.83;;;;;;;12.20;70.77;100272.25;5053782;28;20032;-56
2023/09/12 03:31:31;;;;;;;35.38;25.23;;;;;;;12.55;69.36;100265.00;5053373;28;20294;-53
2023/09/12 03:33:56;;;;;;;42.03;25.70;;;;;;;13.11;67.37;100276.50;5053544;28;20116;-58
2023/09/12 03:36:21;;;;;;;39.83;24.45;;;;;;;13.66;65.75;100275.50;5052886;28;20452;-57
2023/09/12 03:38:47;;;;;;;39.38;24.02;;;;;;;14.27;63.53;100266.53;5052982;28;20044;-58
2023/09/12 03:41:12;;;;;;;36.50;23.45;;;;;;;14.93;61.17;100266.97;5052918;28;20107;-57
2023/09/12 03:43:38;;;;;;;37.78;23.30;;;;;;;15.46;59.05;100240.53;5052841;28;20072;-55
2023/09/12 03:46:03;;;;;;;36.38;23.67;;;;;;;16.26;57.03;100260.84;5053103;28;20040;-56
2023/09/12 03:48:32;;;;;;;38.72;24.20;;;;;;;16.94;54.96;100264.97;5052849;28;20032;-55
2023/09/12 03:50:57;;;;;;;33.65;23.98;;;;;;;17.39;52.93;100263.16;5053082;28;20040;-56
2023/09/12 03:53:23;;;;;;;38.42;22.85;;;;;;;17.81;51.64;100260.72;5053067;28;20082;-53
2023/09/12 03:55:48;;;;;;;36.80;23.75;;;;;;;18.26;50.32;100265.03;5052885;28;20036;-54
2023/09/12 03:58:13;;;;;;;34.63;22.95;;;;;;;18.61;48.99;100237.88;5052215;28;20067;-57
2023/09/12 04:00:39;;;;;;;38.58;23.63;;;;;;;19.21;47.77;100269.34;5052852;28;20036;-57
2023/09/12 04:03:04;;;;;;;39.47;23.73;;;;;;;19.48;46.93;100264.56;5052993;28;20056;-55
2023/09/12 04:05:29;;;;;;;38.67;24.80;;;;;;;19.80;46.00;100254.63;5052400;28;20033;-58
2023/09/12 04:07:55;;;;;;;35.90;23.73;;;;;;;20.22;44.66;100262.69;5052621;28;20041;-56
2023/09/12 04:10:21;;;;;;;34.90;24.20;;;;;;;20.51;43.82;100253.88;5051987;28;20771;-55
2023/09/12 04:12:46;;;;;;;36.70;23.90;;;;;;;21.07;42.62;100271.91;5052443;28;20049;-53
2023/09/12 04:15:12;;;;;;;34.60;23.63;;;;;;;21.49;41.86;100277.00;5052570;28;20041;-59
2023/09/12 04:17:37;;;;;;;39.30;24.35;;;;;;;21.64;40.76;100275.16;5051703;28;20025;-59
2023/09/12 04:20:04;;;;;;;33.72;23.83;;;;;;;22.01;40.25;100282.63;5052400;28;20132;-61
2023/09/12 04:22:30;;;;;;;32.58;23.70;;;;;;;22.34;39.42;100285.81;5052460;28;20051;-58
2023/09/12 04:24:55;;;;;;;33.13;24.70;;;;;;;22.77;38.31;100282.34;5052711;28;20347;-57
2023/09/12 04:27:20;;;;;;;30.90;24.30;;;;;;;23.02;37.81;100281.97;5052395;28;20025;-57
2023/09/12 04:29:46;;;;;;;33.38;24.38;;;;;;;23.54;36.95;100284.56;5052445;28;20464;-54
2023/09/12 04:32:12;;;;;;;29.58;23.50;;;;;;;23.87;35.99;100273.03;5051638;28;20045;-57
2023/09/12 04:34:37;;;;;;;30.67;24.05;;;;;;;24.31;35.06;100248.22;5052241;28;20053;-58
2023/09/12 04:37:03;;;;;;;36.05;25.83;;;;;;;24.92;33.88;100260.22;5051592;28;20336;-58
2023/09/12 04:39:29;;;;;;;30.70;24.08;;;;;;;25.83;32.03;100279.84;5052470;28;20036;-56
2023/09/12 04:41:55;;;;;;;29.10;22.60;;;;;;;26.39;31.39;100291.31;5052146;28;20025;-56
2023/09/12 04:44:20;;;;;;;33.10;22.95;;;;;;;27.08;30.41;100290.75;5052568;28;20071;-57
2023/09/12 04:46:46;;;;;;;27.42;22.98;;;;;;;27.33;29.44;100288.03;5052261;28;20024;-57
2023/09/12 04:49:11;;;;;;;28.13;22.67;;;;;;;27.67;28.93;100295.16;5052080;28;20123;-57
2023/09/12 04:51:37;;;;;;;31.00;24.75;;;;;;;27.85;28.64;100295.22;5050457;28;20210;-59
2023/09/12 04:54:04;;;;;;;31.58;23.95;;;;;;;28.18;27.73;100283.03;5052616;28;20043;-56
2023/09/12 04:56:29;;;;;;;27.40;22.83;;;;;;;28.89;27.02;100256.91;5052376;28;20044;-55
2023/09/12 04:58:54;;;;;;;26.02;23.08;;;;;;;29.52;26.31;100287.75;5051815;28;20040;-55
2023/09/12 05:01:20;;;;;;;26.40;22.40;;;;;;;30.17;25.04;100277.66;5030704;28;20033;-57
2023/09/12 05:03:45;;;;;;;26.67;22.25;;;;;;;30.88;24.17;100287.63;5032984;28;20128;-58
2023/09/12 05:06:12;;;;;;;24.98;20.52;;;;;;;31.56;23.66;100292.38;5051711;28;20021;-56
2023/09/12 05:08:38;;;;;;;29.88;22.08;;;;;;;31.96;22.61;100284.13;5050522;28;20047;-58
2023/09/12 05:11:03;;;;;;;25.50;22.05;;;;;;;32.21;22.38;100267.84;5050758;28;20037;-60
2023/09/12 05:13:30;;;;;;;27.35;22.50;;;;;;;32.56;22.13;100287.94;5051924;28;20051;-56
2023/09/12 05:15:56;;;;;;;26.00;22.25;;;;;;;32.75;21.29;100257.94;5051653;28;20511;-56
2023/09/12 05:18:22;;;;;;;25.13;22.02;;;;;;;33.27;21.15;100294.47;5051010;28;20033;-60
2023/09/12 05:20:47;;;;;;;24.40;20.63;;;;;;;33.92;20.29;100293.59;5051331;28;20465;-57
2023/09/12 05:23:13;;;;;;;24.08;20.90;;;;;;;34.06;19.85;100271.75;5051113;28;20031;-60
2023/09/12 05:25:38;;;;;;;25.08;21.48;;;;;;;34.69;19.06;100301.44;5051648;28;20025;-62
2023/09/12 05:28:04;;;;;;;24.85;21.00;;;;;;;35.18;18.73;100288.19;5052079;28;20498;-61
2023/09/12 05:30:30;;;;;;;25.30;20.67;;;;;;;35.76;17.99;100301.81;5050332;28;20029;-61
2023/09/12 05:32:56;;;;;;;25.58;22.45;;;;;;;36.22;17.47;100302.00;5051346;28;20281;-60
2023/09/12 05:35:21;;;;;;;26.25;21.88;;;;;;;36.56;17.42;100301.28;5051390;28;20021;-62
2023/09/12 05:37:47;;;;;;;28.23;21.98;;;;;;;36.31;17.74;100311.44;5051571;28;20483;-61
2023/09/12 05:40:13;;;;;;;25.05;21.35;;;;;;;36.55;16.90;100302.41;5051454;28;20120;-60
2023/09/12 05:42:38;;;;;;;24.60;21.55;;;;;;;36.99;16.91;100309.09;5052667;28;20190;-61
2023/09/12 05:45:04;;;;;;;26.88;21.40;;;;;;;37.60;16.02;100313.38;5054423;28;20069;-61
2023/09/12 05:47:30;;;;;;;27.58;22.35;;;;;;;37.98;15.92;100304.38;5055654;28;20044;-60
2023/09/12 05:49:55;;;;;;;29.60;21.63;;;;;;;38.46;15.45;100306.31;5055749;28;20071;-61
2023/09/12 05:52:21;;;;;;;24.63;21.85;;;;;;;38.85;14.94;100307.16;5055404;28;20029;-60
2023/09/12 05:54:46;;;;;;;27.95;21.98;;;;;;;39.27;14.49;100279.34;5030382;28;20510;-61
2023/09/12 05:57:12;;;;;;;25.23;22.27;;;;;;;39.62;14.15;100279.03;5034541;28;20026;-60
2023/09/12 05:59:39;;;;;;;29.08;21.15;;;;;;;39.74;14.38;100317.75;5035689;28;20251;-61
2023/09/12 06:02:06;;;;;;;30.98;21.55;;;;;;;39.93;14.05;100295.28;5041450;28;20123;-60
2023/09/12 06:04:32;;;;;;;28.58;21.95;;;;;;;39.59;14.14;100308.53;5053885;28;20036;-62
2023/09/12 06:06:57;;;;;;;29.50;22.70;;;;;;;38.90;14.54;100314.66;5054955;28;20366;-61
2023/09/12 06:09:23;;;;;;;34.45;22.75;;;;;;;38.66;14.89;100312.75;5053617;28;20029;-60
2023/09/12 06:11:49;;;;;;;31.20;23.13;;;;;;;38.60;14.85;100327.97;5055150;28;20143;-60
2023/09/12 06:14:14;;;;;;;34.17;22.70;;;;;;;38.29;15.20;100323.56;5054109;28;20036;-61
2023/09/12 06:16:40;;;;;;;31.10;22.15;;;;;;;38.56;14.87;100327.72;5054766;28;20033;-61
2023/09/12 06:19:05;;;;;;;38.28;21.80;;;;;;;39.33;14.56;100317.34;5055251;28;20029;-61
2023/09/12 06:21:31;;;;;;;32.88;23.45;;;;;;;39.65;14.11;100342.84;5054963;28;20032;-61
2023/09/12 06:24:13;;;;;;;27.20;20.75;;;;;;;40.92;13.79;100350.16;5054552;28;20040;-61
2023/09/12 06:26:39;;;;;;;30.35;21.00;;;;;;;40.75;13.04;100340.41;5035033;28;20037;-64
2023/09/12 06:29:05;;;;;;;29.75;20.27;;;;;;;41.06;12.93;100340.88;5035368;28;20104;-62
2023/09/12 06:31:31;;;;;;;24.63;21.20;;;;;;;41.31;12.58;100331.81;5034776;28;20125;-61
2023/09/12 06:33:57;;;;;;;26.90;21.60;;;;;;;40.72;13.04;100329.81;5054546;28;20112;-61
2023/09/12 06:36:23;;;;;;;23.50;20.38;;;;;;;40.07;13.46;100340.16;5054136;28;20087;-61
2023/09/12 06:38:49;;;;;;;25.52;19.23;;;;;;;40.61;12.93;100334.81;5055035;28;20364;-61
2023/09/12 06:41:15;;;;;;;27.50;20.65;;;;;;;40.98;12.79;100306.75;5055032;28;20028;-61
2023/09/12 06:43:40;;;;;;;25.20;20.42;;;;;;;41.02;12.76;100284.50;5054796;28;20040;-61
2023/09/12 06:46:06;;;;;;;23.33;20.02;;;;;;;41.97;12.14;100312.69;5054040;28;20428;-62
2023/09/12 06:48:31;;;;;;;22.95;20.13;;;;;;;42.87;11.61;100328.31;5053677;28;20041;-61
2023/09/12 06:50:56;;;;;;;22.23;19.90;;;;;;;43.12;11.03;100327.78;5054601;28;20037;-61
2023/09/12 06:53:22;;;;;;;24.63;21.43;;;;;;;42.66;11.54;100333.72;5053246;28;20643;-61
2023/09/12 06:55:47;;;;;;;23.45;19.73;;;;;;;42.61;11.82;100331.09;5050342;28;20276;-62
2023/09/12 06:58:13;;;;;;;29.02;19.85;;;;;;;43.22;11.25;100327.47;5052877;28;20118;-61
2023/09/12 07:00:38;;;;;;;26.75;20.75;;;;;;;43.77;11.05;100325.06;5053909;28;20074;-62
2023/09/12 07:03:04;;;;;;;26.50;19.55;;;;;;;44.24;10.47;100331.81;5054340;28;20086;-60
2023/09/12 07:05:29;;;;;;;24.10;19.88;;;;;;;44.65;10.41;100335.91;5052897;28;20032;-61
2023/09/12 07:07:55;;;;;;;22.50;20.10;;;;;;;44.89;10.20;100328.72;5054261;28;20444;-61
2023/09/12 07:10:21;;;;;;;21.67;19.25;;;;;;;45.36;10.00;100329.69;5054006;28;20470;-61
2023/09/12 07:12:46;;;;;;;21.30;19.17;;;;;;;45.56;9.99;100327.94;5053590;28;20045;-61
2023/09/12 07:15:12;;;;;;;25.27;19.52;;;;;;;46.12;9.89;100330.28;5048840;28;20103;-64
2023/09/12 07:17:38;;;;;;;22.38;18.98;;;;;;;46.21;9.48;100327.31;5052997;28;20043;-61
2023/09/12 07:20:05;;;;;;;22.65;18.90;;;;;;;45.90;9.41;100333.56;5052580;28;20025;-62
2023/09/12 07:22:30;;;;;;;20.75;18.55;;;;;;;45.53;9.76;100329.47;5051402;28;20057;-58
2023/09/12 07:24:59;;;;;;;20.63;18.58;;;;;;;45.77;9.53;100339.19;5052975;28;20486;-59
2023/09/12 07:27:25;;;;;;;20.65;18.58;;;;;;;45.49;9.64;100334.16;5052849;28;20158;-59
2023/09/12 07:29:50;;;;;;;23.08;20.80;;;;;;;44.79;9.99;100309.38;5052501;28;20083;-57
2023/09/12 07:32:15;;;;;;;24.87;19.63;;;;;;;44.39;10.25;100311.47;5052718;28;20029;-60
2023/09/12 07:34:45;;;;;;;19.98;18.00;;;;;;;44.55;10.24;100319.34;5052291;28;20640;-61
2023/09/12 07:37:10;;;;;;;18.92;17.13;;;;;;;44.56;10.16;100316.19;5052772;28;20440;-59
2023/09/12 07:39:36;;;;;;;17.23;15.53;;;;;;;44.32;10.52;100314.00;5052661;28;20056;-58
2023/09/12 07:42:02;;;;;;;20.50;18.45;;;;;;;43.63;10.55;100324.41;5051393;28;20257;-60
2023/09/12 07:44:29;;;;;;;20.58;18.48;;;;;;;42.32;11.39;100316.47;5053315;28;20029;-59
2023/09/12 07:46:54;;;;;;;21.13;18.98;;;;;;;41.38;12.54;100319.28;5052896;28;20064;-60
2023/09/12 07:49:19;;;;;;;23.10;19.87;;;;;;;41.19;12.82;100317.50;5052873;28;20467;-58
2023/09/12 07:51:45;;;;;;;22.73;20.33;;;;;;;40.91;12.74;100320.41;5052375;28;20264;-58
2023/09/12 07:54:10;;;;;;;23.98;20.02;;;;;;;39.66;13.67;100284.84;5053071;28;20037;-59
2023/09/12 07:56:36;;;;;;;22.30;20.10;;;;;;;38.30;14.67;100288.03;5050842;28;20106;-58
2023/09/12 07:59:01;;;;;;;23.38;18.27;;;;;;;36.02;16.28;100320.44;5050375;28;20032;-56
2023/09/12 08:01:27;;;;;;;28.65;22.52;;;;;;;33.45;18.67;100309.09;5050972;28;20035;-58
2023/09/12 08:03:52;;;;;;;29.00;21.42;;;;;;;31.17;21.74;100315.22;5052041;28;20064;-61
2023/09/12 08:06:18;;;;;;;27.92;20.88;;;;;;;29.35;23.51;100315.97;5052391;28;20036;-57
2023/09/12 08:08:43;;;;;;;25.05;20.50;;;;;;;28.05;25.63;100332.69;5052897;28;20163;-61
2023/09/12 08:11:09;;;;;;;24.83;18.23;;;;;;;26.83;26.44;100326.41;5052070;28;20086;-56
2023/09/12 08:13:34;;;;;;;20.75;16.20;;;;;;;25.89;28.34;100328.34;5041800;28;20037;-60
2023/09/12 08:16:00;;;;;;;26.05;19.00;;;;;;;25.01;29.57;100283.59;5043811;28;20025;-58
2023/09/12 08:18:28;;;;;;;28.98;21.02;;;;;;;24.64;30.18;100322.25;5052115;28;20029;-58
2023/09/12 08:20:54;;;;;;;29.20;22.05;;;;;;;24.06;31.45;100308.91;5051668;28;20443;-58
2023/09/12 08:23:19;;;;;;;32.22;22.45;;;;;;;23.79;32.03;100325.09;5052035;28;20039;-59
2023/09/12 08:25:45;;;;;;;30.02;22.42;;;;;;;23.44;32.91;100322.31;5051132;28;20033;-59
2023/09/12 08:28:10;;;;;;;26.77;20.85;;;;;;;23.23;33.27;100327.53;5046744;28;20033;-62
2023/09/12 08:30:36;;;;;;;29.52;21.70;;;;;;;23.02;33.48;100322.94;5051882;28;20040;-59
2023/09/12 08:33:03;;;;;;;30.23;22.08;;;;;;;22.95;34.07;100313.84;5051741;28;20069;-61
2023/09/12 08:35:29;;;;;;;30.02;20.33;;;;;;;22.98;33.76;100313.44;5051210;28;20384;-57
2023/09/12 08:37:55;;;;;;;30.05;20.77;;;;;;;23.07;33.47;100317.72;5051743;28;20037;-57
2023/09/12 08:40:20;;;;;;;24.73;19.42;;;;;;;23.09;32.93;100320.28;5051702;28;20043;-59
2023/09/12 08:42:47;;;;;;;25.88;17.77;;;;;;;23.08;32.82;100315.84;5044046;28;20426;-58
2023/09/12 08:45:18;;;;;;;27.85;19.08;;;;;;;23.01;33.21;100323.97;5050425;28;20048;-58
2023/09/12 08:47:45;;;;;;;22.05;18.23;;;;;;;22.87;33.19;100319.41;5051049;28;20119;-62
2023/09/12 08:50:16;;;;;;;26.90;16.73;;;;;;;22.88;32.92;100315.63;5046648;28;20024;-63
2023/09/12 08:52:43;;;;;;;18.30;15.27;;;;;;;22.92;32.41;100314.22;5050501;28;20047;-57
2023/09/12 08:55:09;;;;;;;22.90;14.63;;;;;;;22.83;32.09;100309.91;5051949;28;20438;-52
2023/09/12 08:57:37;;;;;;;24.45;16.08;;;;;;;22.69;32.00;100307.03;5050253;28;20082;-56
2023/09/12 09:00:06;;;;;;;22.58;14.27;;;;;;;22.58;32.31;100313.84;5049817;28;20746;-57
2023/09/12 09:02:36;;;;;;;25.48;13.70;;;;;;;22.56;31.78;100309.59;5049763;28;20041;-58
2023/09/12 09:05:05;;;;;;;22.33;15.20;;;;;;;22.38;32.44;100308.06;5051395;28;20021;-57
2023/09/12 09:07:44;;;;;;;22.23;15.60;;;;;;;22.20;32.71;100303.03;5051498;28;20033;-59
2023/09/12 09:10:16;;;;;;;22.67;14.98;;;;;;;22.02;32.58;100293.34;5049408;28;20075;-57
2023/09/12 09:12:45;;;;;;;20.98;14.25;;;;;;;21.79;33.30;100309.78;5041576;28;20049;-62
2023/09/12 09:15:28;;;;;;;21.67;15.07;;;;;;;21.84;32.70;100290.97;5051442;28;20111;-59
2023/09/12 09:17:55;;;;;;;23.88;16.75;;;;;;;21.82;34.45;100300.38;5049508;28;20033;-59
2023/09/12 09:20:37;;;;;;;26.05;16.83;;;;;;;22.01;33.64;100307.16;5049906;28;20359;-56
2023/09/12 09:23:10;;;;;;;22.70;16.20;;;;;;;21.83;34.38;100305.66;5049741;28;20077;-60
2023/09/12 09:25:39;;;;;;;24.38;16.42;;;;;;;21.61;34.85;100300.03;5050629;28;20029;-61
2023/09/12 09:28:16;;;;;;;20.08;13.80;;;;;;;21.58;34.03;100296.81;5050750;28;20045;-61
2023/09/12 09:30:44;;;;;;;21.08;13.15;;;;;;;21.58;34.07;100297.69;5049989;28;20422;-53
2023/09/12 09:33:10;;;;;;;20.05;14.80;;;;;;;21.43;34.19;100285.91;5050831;28;20359;-56
2023/09/12 09:35:36;;;;;;;20.58;14.07;;;;;;;21.48;34.79;100291.66;5049127;28;20056;-56
2023/09/12 09:38:04;;;;;;;23.08;16.08;;;;;;;21.41;35.09;100298.84;5050683;28;20355;-55
2023/09/12 09:40:31;;;;;;;21.25;15.45;;;;;;;21.32;35.50;100288.03;5049865;28;20135;-52
2023/09/12 09:43:00;;;;;;;19.75;15.15;;;;;;;21.43;35.32;100294.94;5049256;28;20052;-58
2023/09/12 09:45:26;;;;;;;28.40;14.90;;;;;;;21.43;35.91;100294.94;5050630;28;20110;-55
2023/09/12 09:47:52;;;;;;;18.52;13.32;;;;;;;21.50;34.59;100286.88;5050213;28;20409;-55
2023/09/12 09:50:17;;;;;;;20.67;13.07;;;;;;;21.55;34.31;100297.19;5050456;28;20432;-54
2023/09/12 09:52:44;;;;;;;18.75;13.63;;;;;;;21.56;34.06;100285.25;5049856;28;20090;-54
2023/09/12 09:55:15;;;;;;;17.60;12.68;;;;;;;21.64;34.22;100280.63;5050148;28;20094;-57
2023/09/12 09:57:41;;;;;;;19.27;12.18;;;;;;;21.67;34.35;100287.59;5050258;28;20036;-53
2023/09/12 10:00:14;;;;;;;18.48;13.75;;;;;;;21.63;34.23;100283.50;5050222;28;20021;-59
2023/09/12 10:02:40;;;;;;;19.02;12.35;;;;;;;21.74;34.08;100301.31;5050251;28;20037;-59
2023/09/12 10:05:09;;;;;;;18.30;12.70;;;;;;;21.70;33.65;100297.25;5048608;28;20073;-58
2023/09/12 10:07:37;;;;;;;17.17;12.25;;;;;;;21.54;34.17;100290.06;5049944;28;20517;-57
2023/09/12 10:10:04;;;;;;;15.63;11.80;;;;;;;21.56;34.12;100288.84;5050206;28;20070;-57
2023/09/12 10:12:32;;;;;;;19.42;11.80;;;;;;;21.60;33.95;100289.34;5050184;28;20473;-57
2023/09/12 10:15:01;;;;;;;18.73;12.13;;;;;;;21.56;34.33;100290.72;5050510;28;20077;-57
2023/09/12 10:17:35;;;;;;;13.63;10.35;;;;;;;21.50;33.85;100289.59;5049858;28;20321;-58
2023/09/12 10:20:09;;;;;;;17.33;11.27;;;;;;;21.45;33.85;100292.88;5049250;28;20021;-57
2023/09/12 10:22:40;;;;;;;18.02;10.95;;;;;;;21.51;34.11;100278.50;5048661;28;20032;-57
2023/09/12 10:25:08;;;;;;;13.95;10.00;;;;;;;21.51;33.73;100299.47;5049041;28;20045;-57
2023/09/12 10:27:34;;;;;;;11.48;9.70;;;;;;;21.50;33.45;100284.97;5049446;28;20029;-60
2023/09/12 10:30:01;;;;;;;16.30;10.88;;;;;;;21.46;33.99;100282.78;5053014;28;20079;-57
2023/09/12 10:32:28;;;;;;;16.55;12.13;;;;;;;21.42;34.87;100295.09;5053877;28;20057;-55
2023/09/12 10:34:58;;;;;;;19.60;11.13;;;;;;;21.31;34.60;100275.44;5054371;28;20088;-56
2023/09/12 10:37:26;;;;;;;15.65;12.07;;;;;;;21.43;34.42;100294.06;5054150;28;20814;-59
2023/09/12 10:39:53;;;;;;;11.93;10.07;;;;;;;21.34;33.96;100291.44;5051437;28;20034;-60
2023/09/12 10:42:20;;;;;;;16.13;11.20;;;;;;;21.24;34.24;100258.16;5052972;28;20060;-61
2023/09/12 10:44:46;;;;;;;17.20;12.07;;;;;;;21.54;34.50;100290.91;5054166;28;20431;-60
2023/09/12 10:47:13;;;;;;;15.10;10.20;;;;;;;21.55;33.70;100281.72;5053552;28;20025;-60
2023/09/12 10:49:39;;;;;;;14.00;10.23;;;;;;;21.61;33.42;100283.69;5054188;28;20095;-62
2023/09/12 10:52:05;;;;;;;12.65;10.05;;;;;;;21.54;33.76;100282.75;5054147;28;20313;-57
2023/09/12 10:54:39;;;;;;;19.30;11.23;;;;;;;21.61;33.90;100291.03;5053418;28;20029;-59
2023/09/12 10:57:11;;;;;;;16.10;10.02;;;;;;;21.47;33.59;100274.44;5052910;28;20238;-57
2023/09/12 11:00:17;;;;;;;14.18;9.07;;;;;;;21.65;33.08;100282.31;5051475;28;20029;-61
2023/09/12 11:02:43;;;;;;;14.40;9.40;;;;;;;21.51;32.47;100250.41;5053259;28;20072;-60
2023/09/12 11:05:27;;;;;;;10.52;8.88;;;;;;;21.84;32.59;100284.69;5053566;28;20397;-60
2023/09/12 11:07:56;;;;;;;9.13;7.00;;;;;;;21.71;31.40;100274.44;5052933;28;20060;-56